sensor_id;sensor_type;location;lat;lon;timestamp;P1;durP1;ratioP1;P2;durP2;ratioP2
3745;SDS011;1888;49.890;10.884;2022-07-06T04:12:46;11.97;;;11.77;;
3745;SDS011;1888;49.890;10.884;2022-07-06T04:15:13;12.10;;;11.90;;
3745;SDS011;1888;49.890;10.884;2022-07-06T04:17:41;11.70;;;11.50;;
3745;SDS011;1888;49.890;10.884;2022-07-06T04:20:23;11.70;;;11.50;;
3745;SDS011;1888;49.890;10.884;2022-07-06T04:22:50;11.50;;;11.30;;
3745;SDS011;1888;49.890;10.884;2022-07-06T04:25:18;11.73;;;11.53;;
3745;SDS011;1888;49.890;10.884;2022-07-06T04:27:46;11.67;;;11.47;;
3745;SDS011;1888;49.890;10.884;2022-07-06T04:30:13;11.97;;;11.77;;
3745;SDS011;1888;49.890;10.884;2022-07-06T04:32:40;11.43;;;11.23;;
3745;SDS011;1888;49.890;10.884;2022-07-06T04:35:08;11.93;;;11.73;;
3745;SDS011;1888;49.890;10.884;2022-07-06T04:37:35;11.80;;;11.60;;
3745;SDS011;1888;49.890;10.884;2022-07-06T04:40:03;11.73;;;11.53;;
3745;SDS011;1888;49.890;10.884;2022-07-06T04:42:30;11.87;;;11.67;;
3745;SDS011;1888;49.890;10.884;2022-07-06T04:44:59;12.00;;;11.80;;
3745;SDS011;1888;49.890;10.884;2022-07-06T04:47:26;11.70;;;11.50;;
3745;SDS011;1888;49.890;10.884;2022-07-06T04:49:54;11.60;;;11.40;;
3745;SDS011;1888;49.890;10.884;2022-07-06T04:52:21;11.90;;;11.70;;
3745;SDS011;1888;49.890;10.884;2022-07-06T04:54:48;11.70;;;11.50;;
3745;SDS011;1888;49.890;10.884;2022-07-06T04:57:15;11.90;;;11.70;;
3745;SDS011;1888;49.890;10.884;2022-07-06T04:59:43;11.97;;;11.77;;
3745;SDS011;1888;49.890;10.884;2022-07-06T05:02:11;11.70;;;11.50;;
3745;SDS011;1888;49.890;10.884;2022-07-06T05:04:38;11.57;;;11.37;;
3745;SDS011;1888;49.890;10.884;2022-07-06T05:07:06;11.50;;;11.30;;
3745;SDS011;1888;49.890;10.884;2022-07-06T05:09:33;11.70;;;11.50;;
3745;SDS011;1888;49.890;10.884;2022-07-06T05:12:01;11.70;;;11.50;;
3745;SDS011;1888;49.890;10.884;2022-07-06T05:14:28;11.47;;;11.27;;
3745;SDS011;1888;49.890;10.884;2022-07-06T05:16:55;11.80;;;11.60;;
3745;SDS011;1888;49.890;10.884;2022-07-06T05:19:24;11.80;;;11.60;;
3745;SDS011;1888;49.890;10.884;2022-07-06T05:21:51;11.57;;;11.37;;
3745;SDS011;1888;49.890;10.884;2022-07-06T05:24:18;11.60;;;11.40;;
3745;SDS011;1888;49.890;10.884;2022-07-06T05:26:45;11.53;;;11.33;;
3745;SDS011;1888;49.890;10.884;2022-07-06T05:29:12;11.30;;;11.10;;
3745;SDS011;1888;49.890;10.884;2022-07-06T05:31:39;11.37;;;11.17;;
3745;SDS011;1888;49.890;10.884;2022-07-06T05:34:06;11.40;;;11.20;;
3745;SDS011;1888;49.890;10.884;2022-07-06T05:36:38;11.00;;;10.80;;
3745;SDS011;1888;49.890;10.884;2022-07-06T05:39:05;11.40;;;11.20;;
3745;SDS011;1888;49.890;10.884;2022-07-06T05:41:32;10.80;;;10.60;;
3745;SDS011;1888;49.890;10.884;2022-07-06T05:43:59;11.57;;;11.37;;
3745;SDS011;1888;49.890;10.884;2022-07-06T05:46:26;11.20;;;11.00;;
3745;SDS011;1888;49.890;10.884;2022-07-06T05:51:53;11.60;;;11.40;;
3745;SDS011;1888;49.890;10.884;2022-07-06T05:54:21;11.53;;;11.33;;
3745;SDS011;1888;49.890;10.884;2022-07-06T05:56:48;11.50;;;11.30;;
3745;SDS011;1888;49.890;10.884;2022-07-06T05:59:15;11.33;;;11.13;;
3745;SDS011;1888;49.890;10.884;2022-07-06T06:01:42;11.33;;;11.13;;
3745;SDS011;1888;49.890;10.884;2022-07-06T06:04:09;11.30;;;11.10;;
3745;SDS011;1888;49.890;10.884;2022-07-06T06:06:36;11.20;;;11.00;;
3745;SDS011;1888;49.890;10.884;2022-07-06T06:09:04;11.40;;;11.20;;
3745;SDS011;1888;49.890;10.884;2022-07-06T06:11:31;11.10;;;10.90;;
3745;SDS011;1888;49.890;10.884;2022-07-06T06:13:59;11.00;;;10.80;;
3745;SDS011;1888;49.890;10.884;2022-07-06T06:16:26;11.07;;;10.87;;
3745;SDS011;1888;49.890;10.884;2022-07-06T06:18:53;10.63;;;10.43;;
3745;SDS011;1888;49.890;10.884;2022-07-06T06:21:20;10.60;;;10.40;;
3745;SDS011;1888;49.890;10.884;2022-07-06T06:23:47;11.17;;;10.97;;
3745;SDS011;1888;49.890;10.884;2022-07-06T06:26:15;11.40;;;11.20;;
3745;SDS011;1888;49.890;10.884;2022-07-06T06:28:42;10.90;;;10.70;;
3745;SDS011;1888;49.890;10.884;2022-07-06T06:31:10;11.13;;;10.93;;
3745;SDS011;1888;49.890;10.884;2022-07-06T06:33:37;10.87;;;10.67;;
3745;SDS011;1888;49.890;10.884;2022-07-06T06:36:04;11.03;;;10.83;;
3745;SDS011;1888;49.890;10.884;2022-07-06T06:38:31;11.23;;;11.03;;
3745;SDS011;1888;49.890;10.884;2022-07-06T06:40:59;11.07;;;10.87;;
3745;SDS011;1888;49.890;10.884;2022-07-06T06:43:29;10.70;;;10.50;;
3745;SDS011;1888;49.890;10.884;2022-07-06T06:45:56;10.33;;;10.23;;
3745;SDS011;1888;49.890;10.884;2022-07-06T06:48:23;10.90;;;10.70;;
3745;SDS011;1888;49.890;10.884;2022-07-06T06:50:52;10.33;;;10.23;;
3745;SDS011;1888;49.890;10.884;2022-07-06T06:53:19;10.70;;;10.50;;
3745;SDS011;1888;49.890;10.884;2022-07-06T06:55:46;10.93;;;10.73;;
3745;SDS011;1888;49.890;10.884;2022-07-06T06:58:13;10.80;;;10.60;;
3745;SDS011;1888;49.890;10.884;2022-07-06T07:00:41;10.40;;;10.30;;
3745;SDS011;1888;49.890;10.884;2022-07-06T07:03:08;10.17;;;10.07;;
3745;SDS011;1888;49.890;10.884;2022-07-06T07:05:36;10.80;;;10.60;;
3745;SDS011;1888;49.890;10.884;2022-07-06T07:08:03;10.57;;;10.40;;
3745;SDS011;1888;49.890;10.884;2022-07-06T07:10:30;10.07;;;9.97;;
3745;SDS011;1888;49.890;10.884;2022-07-06T07:12:58;10.73;;;10.53;;
3745;SDS011;1888;49.890;10.884;2022-07-06T07:15:25;10.97;;;10.77;;
3745;SDS011;1888;49.890;10.884;2022-07-06T07:17:54;10.57;;;10.43;;
3745;SDS011;1888;49.890;10.884;2022-07-06T07:20:24;10.90;;;10.70;;
3745;SDS011;1888;49.890;10.884;2022-07-06T07:22:51;10.57;;;10.40;;
3745;SDS011;1888;49.890;10.884;2022-07-06T07:25:19;10.40;;;10.30;;
3745;SDS011;1888;49.890;10.884;2022-07-06T07:27:47;10.60;;;10.40;;
3745;SDS011;1888;49.890;10.884;2022-07-06T07:30:17;10.63;;;10.43;;
3745;SDS011;1888;49.890;10.884;2022-07-06T07:32:44;10.93;;;10.73;;
3745;SDS011;1888;49.890;10.884;2022-07-06T07:35:13;10.87;;;10.67;;
3745;SDS011;1888;49.890;10.884;2022-07-06T07:37:40;10.23;;;10.13;;
3745;SDS011;1888;49.890;10.884;2022-07-06T07:40:08;10.33;;;10.23;;
3745;SDS011;1888;49.890;10.884;2022-07-06T07:42:35;10.67;;;10.47;;
3745;SDS011;1888;49.890;10.884;2022-07-06T07:45:06;10.70;;;10.50;;
3745;SDS011;1888;49.890;10.884;2022-07-06T07:47:36;10.83;;;10.63;;
3745;SDS011;1888;49.890;10.884;2022-07-06T07:50:04;11.60;;;11.40;;
3745;SDS011;1888;49.890;10.884;2022-07-06T07:52:35;11.10;;;10.90;;
3745;SDS011;1888;49.890;10.884;2022-07-06T07:55:02;10.70;;;10.50;;
3745;SDS011;1888;49.890;10.884;2022-07-06T07:57:30;10.97;;;10.77;;
3745;SDS011;1888;49.890;10.884;2022-07-06T07:59:57;11.00;;;10.80;;
3745;SDS011;1888;49.890;10.884;2022-07-06T08:02:25;10.47;;;10.33;;
3745;SDS011;1888;49.890;10.884;2022-07-06T08:04:53;10.67;;;10.47;;
3745;SDS011;1888;49.890;10.884;2022-07-06T08:07:21;11.00;;;10.80;;
3745;SDS011;1888;49.890;10.884;2022-07-06T08:09:50;10.40;;;10.30;;
3745;SDS011;1888;49.890;10.884;2022-07-06T08:12:17;11.10;;;10.90;;
3745;SDS011;1888;49.890;10.884;2022-07-06T08:14:44;10.13;;;10.03;;
3745;SDS011;1888;49.890;10.884;2022-07-06T08:17:12;10.87;;;10.67;;
3745;SDS011;1888;49.890;10.884;2022-07-06T08:19:39;10.40;;;10.30;;
3745;SDS011;1888;49.890;10.884;2022-07-06T08:22:06;10.90;;;10.70;;
3745;SDS011;1888;49.890;10.884;2022-07-06T08:24:34;10.77;;;10.57;;
3745;SDS011;1888;49.890;10.884;2022-07-06T08:27:03;11.10;;;10.90;;
3745;SDS011;1888;49.890;10.884;2022-07-06T08:29:30;10.80;;;10.60;;
3745;SDS011;1888;49.890;10.884;2022-07-06T08:31:58;10.47;;;10.37;;
3745;SDS011;1888;49.890;10.884;2022-07-06T08:34:25;10.80;;;10.60;;
3745;SDS011;1888;49.890;10.884;2022-07-06T08:36:52;10.23;;;10.13;;
3745;SDS011;1888;49.890;10.884;2022-07-06T08:39:19;10.40;;;10.30;;
3745;SDS011;1888;49.890;10.884;2022-07-06T08:41:46;10.23;;;10.13;;
3745;SDS011;1888;49.890;10.884;2022-07-06T08:44:15;10.23;;;10.13;;
3745;SDS011;1888;49.890;10.884;2022-07-06T08:46:43;10.80;;;10.60;;
3745;SDS011;1888;49.890;10.884;2022-07-06T08:49:12;10.60;;;10.40;;
3745;SDS011;1888;49.890;10.884;2022-07-06T08:51:40;10.60;;;10.40;;
3745;SDS011;1888;49.890;10.884;2022-07-06T08:54:07;10.00;;;9.90;;
3745;SDS011;1888;49.890;10.884;2022-07-06T08:56:34;10.40;;;10.30;;
3745;SDS011;1888;49.890;10.884;2022-07-06T08:59:01;10.30;;;10.20;;
3745;SDS011;1888;49.890;10.884;2022-07-06T09:01:30;10.50;;;10.30;;
3745;SDS011;1888;49.890;10.884;2022-07-06T09:03:57;10.00;;;9.90;;
3745;SDS011;1888;49.890;10.884;2022-07-06T09:06:26;10.17;;;10.07;;
3745;SDS011;1888;49.890;10.884;2022-07-06T09:08:54;10.27;;;10.17;;
3745;SDS011;1888;49.890;10.884;2022-07-06T09:11:21;10.57;;;10.37;;
3745;SDS011;1888;49.890;10.884;2022-07-06T09:13:49;10.50;;;10.40;;
3745;SDS011;1888;49.890;10.884;2022-07-06T09:16:16;10.53;;;10.43;;
3745;SDS011;1888;49.890;10.884;2022-07-06T09:18:45;10.33;;;10.23;;
3745;SDS011;1888;49.890;10.884;2022-07-06T09:21:12;10.30;;;10.20;;
3745;SDS011;1888;49.890;10.884;2022-07-06T09:23:52;10.17;;;10.07;;
3745;SDS011;1888;49.890;10.884;2022-07-06T09:26:19;10.40;;;10.30;;
3745;SDS011;1888;49.890;10.884;2022-07-06T09:28:46;10.47;;;10.30;;
3745;SDS011;1888;49.890;10.884;2022-07-06T09:31:13;10.37;;;10.27;;
3745;SDS011;1888;49.890;10.884;2022-07-06T09:33:54;10.30;;;10.20;;
3745;SDS011;1888;49.890;10.884;2022-07-06T09:36:36;10.20;;;10.10;;
3745;SDS011;1888;49.890;10.884;2022-07-06T09:39:14;10.50;;;10.40;;
3745;SDS011;1888;49.890;10.884;2022-07-06T09:41:41;10.80;;;10.60;;
3745;SDS011;1888;49.890;10.884;2022-07-06T09:44:08;10.40;;;10.30;;
3745;SDS011;1888;49.890;10.884;2022-07-06T09:46:40;10.43;;;10.33;;
3745;SDS011;1888;49.890;10.884;2022-07-06T09:49:08;10.70;;;10.50;;
3745;SDS011;1888;49.890;10.884;2022-07-06T09:51:36;10.20;;;10.10;;
3745;SDS011;1888;49.890;10.884;2022-07-06T09:54:05;9.90;;;9.80;;
3745;SDS011;1888;49.890;10.884;2022-07-06T09:56:35;10.27;;;10.17;;
3745;SDS011;1888;49.890;10.884;2022-07-06T09:59:05;10.67;;;10.47;;
3745;SDS011;1888;49.890;10.884;2022-07-06T10:01:32;10.80;;;10.60;;
3745;SDS011;1888;49.890;10.884;2022-07-06T10:03:59;10.60;;;10.40;;
3745;SDS011;1888;49.890;10.884;2022-07-06T10:06:29;10.90;;;10.70;;
3745;SDS011;1888;49.890;10.884;2022-07-06T10:08:57;10.97;;;10.77;;
3745;SDS011;1888;49.890;10.884;2022-07-06T10:11:24;10.90;;;10.70;;
3745;SDS011;1888;49.890;10.884;2022-07-06T10:13:52;10.10;;;10.00;;
3745;SDS011;1888;49.890;10.884;2022-07-06T10:16:21;10.90;;;10.70;;
3745;SDS011;1888;49.890;10.884;2022-07-06T10:18:49;10.73;;;10.53;;
3745;SDS011;1888;49.890;10.884;2022-07-06T10:21:18;10.10;;;10.00;;
3745;SDS011;1888;49.890;10.884;2022-07-06T10:23:47;10.77;;;10.57;;
3745;SDS011;1888;49.890;10.884;2022-07-06T10:26:15;10.67;;;10.47;;
3745;SDS011;1888;49.890;10.884;2022-07-06T10:28:42;10.97;;;10.77;;
3745;SDS011;1888;49.890;10.884;2022-07-06T10:31:13;10.90;;;10.70;;
3745;SDS011;1888;49.890;10.884;2022-07-06T10:33:41;10.90;;;10.70;;
3745;SDS011;1888;49.890;10.884;2022-07-06T10:36:09;10.70;;;10.50;;
3745;SDS011;1888;49.890;10.884;2022-07-06T10:38:36;10.47;;;10.37;;
3745;SDS011;1888;49.890;10.884;2022-07-06T10:41:05;10.57;;;10.43;;
3745;SDS011;1888;49.890;10.884;2022-07-06T10:43:35;10.10;;;10.00;;
3745;SDS011;1888;49.890;10.884;2022-07-06T10:46:05;10.70;;;10.50;;
3745;SDS011;1888;49.890;10.884;2022-07-06T10:48:36;10.67;;;10.47;;
3745;SDS011;1888;49.890;10.884;2022-07-06T10:51:03;11.00;;;10.80;;
3745;SDS011;1888;49.890;10.884;2022-07-06T10:53:31;10.70;;;10.50;;
3745;SDS011;1888;49.890;10.884;2022-07-06T10:55:59;11.00;;;10.80;;
3745;SDS011;1888;49.890;10.884;2022-07-06T10:58:39;10.90;;;10.70;;
3745;SDS011;1888;49.890;10.884;2022-07-06T11:01:07;10.80;;;10.60;;
3745;SDS011;1888;49.890;10.884;2022-07-06T11:03:36;10.80;;;10.60;;
3745;SDS011;1888;49.890;10.884;2022-07-06T11:06:07;10.67;;;10.47;;
3745;SDS011;1888;49.890;10.884;2022-07-06T11:08:41;10.80;;;10.60;;
3745;SDS011;1888;49.890;10.884;2022-07-06T11:11:11;10.80;;;10.60;;
3745;SDS011;1888;49.890;10.884;2022-07-06T11:13:46;10.80;;;10.60;;
3745;SDS011;1888;49.890;10.884;2022-07-06T11:16:14;10.80;;;10.60;;
3745;SDS011;1888;49.890;10.884;2022-07-06T11:18:41;11.10;;;10.90;;
3745;SDS011;1888;49.890;10.884;2022-07-06T11:21:14;10.80;;;10.60;;
3745;SDS011;1888;49.890;10.884;2022-07-06T11:23:42;10.83;;;10.63;;
3745;SDS011;1888;49.890;10.884;2022-07-06T11:26:09;10.67;;;10.47;;
3745;SDS011;1888;49.890;10.884;2022-07-06T11:28:37;10.77;;;10.57;;
3745;SDS011;1888;49.890;10.884;2022-07-06T11:31:06;10.97;;;10.77;;
3745;SDS011;1888;49.890;10.884;2022-07-06T11:33:33;10.83;;;10.63;;
3745;SDS011;1888;49.890;10.884;2022-07-06T11:36:13;10.75;;;10.55;;
3745;SDS011;1888;49.890;10.884;2022-07-06T11:38:40;10.25;;;10.15;;
3745;SDS011;1888;49.890;10.884;2022-07-06T11:41:08;10.40;;;10.30;;
3745;SDS011;1888;49.890;10.884;2022-07-06T11:43:38;10.70;;;10.50;;
3745;SDS011;1888;49.890;10.884;2022-07-06T11:46:25;10.90;;;10.70;;
3745;SDS011;1888;49.890;10.884;2022-07-06T11:48:54;10.77;;;10.57;;
3745;SDS011;1888;49.890;10.884;2022-07-06T11:51:27;11.10;;;10.90;;
3745;SDS011;1888;49.890;10.884;2022-07-06T11:53:55;10.37;;;10.27;;
3745;SDS011;1888;49.890;10.884;2022-07-06T11:56:23;10.53;;;10.40;;
3745;SDS011;1888;49.890;10.884;2022-07-06T11:58:52;11.07;;;10.87;;
3745;SDS011;1888;49.890;10.884;2022-07-06T12:01:20;10.73;;;10.53;;
3745;SDS011;1888;49.890;10.884;2022-07-06T12:03:49;10.80;;;10.60;;
3745;SDS011;1888;49.890;10.884;2022-07-06T12:06:18;10.30;;;10.20;;
3745;SDS011;1888;49.890;10.884;2022-07-06T12:08:46;10.43;;;10.32;;
3745;SDS011;1888;49.890;10.884;2022-07-06T12:11:17;10.38;;;10.27;;
3745;SDS011;1888;49.890;10.884;2022-07-06T12:13:45;10.70;;;10.50;;
3745;SDS011;1888;49.890;10.884;2022-07-06T12:16:13;10.90;;;10.70;;
3745;SDS011;1888;49.890;10.884;2022-07-06T12:18:41;10.70;;;10.50;;
3745;SDS011;1888;49.890;10.884;2022-07-06T12:21:11;11.15;;;10.95;;
3745;SDS011;1888;49.890;10.884;2022-07-06T12:23:42;10.70;;;10.50;;
3745;SDS011;1888;49.890;10.884;2022-07-06T12:26:10;11.00;;;10.80;;
3745;SDS011;1888;49.890;10.884;2022-07-06T12:28:37;11.00;;;10.80;;
3745;SDS011;1888;49.890;10.884;2022-07-06T12:31:05;11.40;;;11.20;;
3745;SDS011;1888;49.890;10.884;2022-07-06T12:33:32;10.97;;;10.77;;
3745;SDS011;1888;49.890;10.884;2022-07-06T12:36:11;11.10;;;10.90;;
3745;SDS011;1888;49.890;10.884;2022-07-06T12:38:44;10.93;;;10.73;;
3745;SDS011;1888;49.890;10.884;2022-07-06T12:41:23;10.73;;;10.53;;
3745;SDS011;1888;49.890;10.884;2022-07-06T12:43:59;11.00;;;10.80;;
3745;SDS011;1888;49.890;10.884;2022-07-06T12:46:27;10.80;;;10.60;;
3745;SDS011;1888;49.890;10.884;2022-07-06T12:48:55;11.03;;;10.83;;
3745;SDS011;1888;49.890;10.884;2022-07-06T12:51:24;11.33;;;11.13;;
3745;SDS011;1888;49.890;10.884;2022-07-06T12:53:51;10.93;;;10.73;;
3745;SDS011;1888;49.890;10.884;2022-07-06T12:56:19;10.97;;;10.77;;
3745;SDS011;1888;49.890;10.884;2022-07-06T12:58:58;11.47;;;11.27;;
3745;SDS011;1888;49.890;10.884;2022-07-06T13:01:28;11.20;;;11.00;;
3745;SDS011;1888;49.890;10.884;2022-07-06T13:03:55;11.37;;;11.17;;
3745;SDS011;1888;49.890;10.884;2022-07-06T13:06:31;11.10;;;10.90;;
3745;SDS011;1888;49.890;10.884;2022-07-06T13:08:59;10.70;;;10.50;;
3745;SDS011;1888;49.890;10.884;2022-07-06T13:11:26;10.90;;;10.70;;
3745;SDS011;1888;49.890;10.884;2022-07-06T13:13:53;11.13;;;10.93;;
3745;SDS011;1888;49.890;10.884;2022-07-06T13:16:20;10.80;;;10.60;;
3745;SDS011;1888;49.890;10.884;2022-07-06T13:18:53;10.50;;;10.40;;
3745;SDS011;1888;49.890;10.884;2022-07-06T13:21:20;11.07;;;10.87;;
3745;SDS011;1888;49.890;10.884;2022-07-06T13:23:48;10.57;;;10.40;;
3745;SDS011;1888;49.890;10.884;2022-07-06T13:26:16;10.90;;;10.70;;
3745;SDS011;1888;49.890;10.884;2022-07-06T13:28:43;10.80;;;10.60;;
3745;SDS011;1888;49.890;10.884;2022-07-06T13:31:11;10.80;;;10.60;;
3745;SDS011;1888;49.890;10.884;2022-07-06T13:33:38;10.77;;;10.57;;
3745;SDS011;1888;49.890;10.884;2022-07-06T13:36:05;11.03;;;10.83;;
3745;SDS011;1888;49.890;10.884;2022-07-06T13:38:32;11.10;;;10.90;;
3745;SDS011;1888;49.890;10.884;2022-07-06T13:41:00;10.77;;;10.57;;
3745;SDS011;1888;49.890;10.884;2022-07-06T13:43:28;10.77;;;10.57;;
3745;SDS011;1888;49.890;10.884;2022-07-06T13:46:01;10.77;;;10.57;;
3745;SDS011;1888;49.890;10.884;2022-07-06T13:48:28;11.07;;;10.87;;
3745;SDS011;1888;49.890;10.884;2022-07-06T13:50:55;11.20;;;11.00;;
3745;SDS011;1888;49.890;10.884;2022-07-06T13:53:22;10.73;;;10.53;;
3745;SDS011;1888;49.890;10.884;2022-07-06T13:55:49;10.80;;;10.60;;
3745;SDS011;1888;49.890;10.884;2022-07-06T13:58:18;11.20;;;11.00;;
3745;SDS011;1888;49.890;10.884;2022-07-06T14:00:45;10.87;;;10.67;;
3745;SDS011;1888;49.890;10.884;2022-07-06T14:03:12;11.70;;;11.50;;
3745;SDS011;1888;49.890;10.884;2022-07-06T14:05:39;11.20;;;11.00;;
3745;SDS011;1888;49.890;10.884;2022-07-06T14:08:06;11.13;;;10.93;;
3745;SDS011;1888;49.890;10.884;2022-07-06T14:10:33;11.63;;;11.43;;
3745;SDS011;1888;49.890;10.884;2022-07-06T14:13:00;11.70;;;11.50;;
3745;SDS011;1888;49.890;10.884;2022-07-06T14:15:30;11.07;;;10.87;;
3745;SDS011;1888;49.890;10.884;2022-07-06T14:17:57;11.60;;;11.40;;
3745;SDS011;1888;49.890;10.884;2022-07-06T14:20:24;11.73;;;11.53;;
3745;SDS011;1888;49.890;10.884;2022-07-06T14:22:51;11.50;;;11.30;;
3745;SDS011;1888;49.890;10.884;2022-07-06T14:25:18;11.70;;;11.50;;
3745;SDS011;1888;49.890;10.884;2022-07-06T14:27:45;11.00;;;10.80;;
3745;SDS011;1888;49.890;10.884;2022-07-06T14:30:13;11.40;;;11.20;;
3745;SDS011;1888;49.890;10.884;2022-07-06T14:32:41;11.67;;;11.47;;
3745;SDS011;1888;49.890;10.884;2022-07-06T14:35:09;11.10;;;10.90;;
3745;SDS011;1888;49.890;10.884;2022-07-06T14:37:36;11.37;;;11.17;;
3745;SDS011;1888;49.890;10.884;2022-07-06T14:40:03;11.00;;;10.80;;
3745;SDS011;1888;49.890;10.884;2022-07-06T14:42:30;11.60;;;11.40;;
3745;SDS011;1888;49.890;10.884;2022-07-06T14:44:57;11.40;;;11.20;;
3745;SDS011;1888;49.890;10.884;2022-07-06T14:47:24;11.70;;;11.50;;
3745;SDS011;1888;49.890;10.884;2022-07-06T14:49:53;11.93;;;11.73;;
3745;SDS011;1888;49.890;10.884;2022-07-06T14:52:20;11.10;;;10.90;;
3745;SDS011;1888;49.890;10.884;2022-07-06T14:54:47;11.40;;;11.20;;
3745;SDS011;1888;49.890;10.884;2022-07-06T14:57:14;11.57;;;11.37;;
3745;SDS011;1888;49.890;10.884;2022-07-06T14:59:41;11.53;;;11.33;;
3745;SDS011;1888;49.890;10.884;2022-07-06T15:02:08;11.60;;;11.40;;
3745;SDS011;1888;49.890;10.884;2022-07-06T15:04:35;11.60;;;11.40;;
3745;SDS011;1888;49.890;10.884;2022-07-06T15:07:04;11.40;;;11.20;;
3745;SDS011;1888;49.890;10.884;2022-07-06T15:09:31;11.13;;;10.93;;
3745;SDS011;1888;49.890;10.884;2022-07-06T15:11:58;11.70;;;11.50;;
3745;SDS011;1888;49.890;10.884;2022-07-06T15:14:27;11.67;;;11.47;;
3745;SDS011;1888;49.890;10.884;2022-07-06T15:16:54;11.57;;;11.37;;
3745;SDS011;1888;49.890;10.884;2022-07-06T15:19:23;10.87;;;10.67;;
3745;SDS011;1888;49.890;10.884;2022-07-06T15:21:50;11.40;;;11.20;;
3745;SDS011;1888;49.890;10.884;2022-07-06T15:24:18;11.27;;;11.07;;
3745;SDS011;1888;49.890;10.884;2022-07-06T15:26:45;11.60;;;11.40;;
3745;SDS011;1888;49.890;10.884;2022-07-06T15:29:13;11.63;;;11.43;;
3745;SDS011;1888;49.890;10.884;2022-07-06T15:31:40;11.50;;;11.30;;
3745;SDS011;1888;49.890;10.884;2022-07-06T15:34:07;11.60;;;11.40;;
3745;SDS011;1888;49.890;10.884;2022-07-06T15:36:34;12.00;;;11.80;;
3745;SDS011;1888;49.890;10.884;2022-07-06T15:39:01;12.20;;;12.00;;
3745;SDS011;1888;49.890;10.884;2022-07-06T15:41:29;12.20;;;12.00;;
3745;SDS011;1888;49.890;10.884;2022-07-06T15:43:57;11.87;;;11.67;;
3745;SDS011;1888;49.890;10.884;2022-07-06T15:46:24;12.00;;;11.80;;
3745;SDS011;1888;49.890;10.884;2022-07-06T15:48:51;11.77;;;11.57;;
3745;SDS011;1888;49.890;10.884;2022-07-06T15:51:18;11.70;;;11.50;;
3745;SDS011;1888;49.890;10.884;2022-07-06T15:53:45;11.07;;;10.87;;
3745;SDS011;1888;49.890;10.884;2022-07-06T15:56:13;11.70;;;11.50;;
3745;SDS011;1888;49.890;10.884;2022-07-06T15:58:42;11.43;;;11.23;;
3745;SDS011;1888;49.890;10.884;2022-07-06T16:01:09;12.00;;;11.80;;
3745;SDS011;1888;49.890;10.884;2022-07-06T16:03:36;11.27;;;11.07;;
3745;SDS011;1888;49.890;10.884;2022-07-06T16:06:04;11.90;;;11.70;;
3745;SDS011;1888;49.890;10.884;2022-07-06T16:08:34;11.93;;;11.73;;
3745;SDS011;1888;49.890;10.884;2022-07-06T16:11:01;11.60;;;11.40;;
3745;SDS011;1888;49.890;10.884;2022-07-06T16:13:28;12.10;;;11.90;;
3745;SDS011;1888;49.890;10.884;2022-07-06T16:15:57;11.67;;;11.47;;
3745;SDS011;1888;49.890;10.884;2022-07-06T16:18:26;11.70;;;11.50;;
3745;SDS011;1888;49.890;10.884;2022-07-06T16:20:53;11.83;;;11.63;;
3745;SDS011;1888;49.890;10.884;2022-07-06T16:23:20;11.57;;;11.37;;
3745;SDS011;1888;49.890;10.884;2022-07-06T16:25:47;11.67;;;11.47;;
3745;SDS011;1888;49.890;10.884;2022-07-06T16:28:14;11.43;;;11.23;;
3745;SDS011;1888;49.890;10.884;2022-07-06T16:30:41;11.50;;;11.30;;
3745;SDS011;1888;49.890;10.884;2022-07-06T16:33:10;11.50;;;11.30;;
3745;SDS011;1888;49.890;10.884;2022-07-06T16:35:37;11.17;;;10.97;;
3745;SDS011;1888;49.890;10.884;2022-07-06T16:38:06;11.40;;;11.20;;
3745;SDS011;1888;49.890;10.884;2022-07-06T16:40:34;11.37;;;11.17;;
3745;SDS011;1888;49.890;10.884;2022-07-06T16:43:01;11.30;;;11.10;;
3745;SDS011;1888;49.890;10.884;2022-07-06T16:45:31;11.67;;;11.47;;
3745;SDS011;1888;49.890;10.884;2022-07-06T16:48:01;11.30;;;11.10;;
3745;SDS011;1888;49.890;10.884;2022-07-06T16:50:32;11.03;;;10.83;;
3745;SDS011;1888;49.890;10.884;2022-07-06T16:53:01;11.10;;;10.90;;
3745;SDS011;1888;49.890;10.884;2022-07-06T16:55:28;10.90;;;10.70;;
3745;SDS011;1888;49.890;10.884;2022-07-06T16:57:55;11.70;;;11.50;;
3745;SDS011;1888;49.890;10.884;2022-07-06T17:00:23;11.13;;;10.93;;
3745;SDS011;1888;49.890;10.884;2022-07-06T17:02:50;11.20;;;11.00;;
3745;SDS011;1888;49.890;10.884;2022-07-06T17:05:17;11.07;;;10.87;;
3745;SDS011;1888;49.890;10.884;2022-07-06T17:07:46;11.07;;;10.87;;
3745;SDS011;1888;49.890;10.884;2022-07-06T17:10:13;11.00;;;10.80;;
3745;SDS011;1888;49.890;10.884;2022-07-06T17:12:40;11.60;;;11.40;;
3745;SDS011;1888;49.890;10.884;2022-07-06T17:15:07;11.27;;;11.07;;
3745;SDS011;1888;49.890;10.884;2022-07-06T17:17:35;11.37;;;11.17;;
3745;SDS011;1888;49.890;10.884;2022-07-06T17:20:03;11.00;;;10.80;;
3745;SDS011;1888;49.890;10.884;2022-07-06T17:22:30;11.10;;;10.90;;
3745;SDS011;1888;49.890;10.884;2022-07-06T17:24:59;11.37;;;11.17;;
3745;SDS011;1888;49.890;10.884;2022-07-06T17:27:26;11.47;;;11.27;;
3745;SDS011;1888;49.890;10.884;2022-07-06T17:29:53;11.70;;;11.50;;
3745;SDS011;1888;49.890;10.884;2022-07-06T17:32:20;11.17;;;10.97;;
3745;SDS011;1888;49.890;10.884;2022-07-06T17:34:47;11.63;;;11.43;;
3745;SDS011;1888;49.890;10.884;2022-07-06T17:37:14;11.60;;;11.40;;
3745;SDS011;1888;49.890;10.884;2022-07-06T17:39:41;11.40;;;11.20;;
3745;SDS011;1888;49.890;10.884;2022-07-06T17:42:10;11.03;;;10.83;;
3745;SDS011;1888;49.890;10.884;2022-07-06T17:44:39;11.70;;;11.50;;
3745;SDS011;1888;49.890;10.884;2022-07-06T17:47:06;11.30;;;11.10;;
3745;SDS011;1888;49.890;10.884;2022-07-06T17:49:33;11.00;;;10.80;;
3745;SDS011;1888;49.890;10.884;2022-07-06T17:52:00;11.80;;;11.60;;
3745;SDS011;1888;49.890;10.884;2022-07-06T17:54:28;11.67;;;11.47;;
3745;SDS011;1888;49.890;10.884;2022-07-06T17:56:55;11.40;;;11.20;;
3745;SDS011;1888;49.890;10.884;2022-07-06T17:59:24;11.23;;;11.03;;
3745;SDS011;1888;49.890;10.884;2022-07-06T18:01:51;10.90;;;10.70;;
3745;SDS011;1888;49.890;10.884;2022-07-06T18:04:18;10.97;;;10.77;;
3745;SDS011;1888;49.890;10.884;2022-07-06T18:06:46;11.23;;;11.03;;
3745;SDS011;1888;49.890;10.884;2022-07-06T18:09:13;11.20;;;11.00;;
3745;SDS011;1888;49.890;10.884;2022-07-06T18:11:40;11.30;;;11.10;;
3745;SDS011;1888;49.890;10.884;2022-07-06T18:14:08;11.63;;;11.43;;
3745;SDS011;1888;49.890;10.884;2022-07-06T18:16:36;11.80;;;11.60;;
3745;SDS011;1888;49.890;10.884;2022-07-06T18:19:05;11.50;;;11.30;;
3745;SDS011;1888;49.890;10.884;2022-07-06T18:21:32;11.37;;;11.17;;
3745;SDS011;1888;49.890;10.884;2022-07-06T18:23:59;11.37;;;11.17;;
3745;SDS011;1888;49.890;10.884;2022-07-06T18:26:26;11.30;;;11.10;;
3745;SDS011;1888;49.890;10.884;2022-07-06T18:28:53;11.60;;;11.40;;
3745;SDS011;1888;49.890;10.884;2022-07-06T18:31:20;11.50;;;11.30;;
3745;SDS011;1888;49.890;10.884;2022-07-06T18:33:49;11.53;;;11.33;;
3745;SDS011;1888;49.890;10.884;2022-07-06T18:36:16;11.27;;;11.07;;
3745;SDS011;1888;49.890;10.884;2022-07-06T18:38:43;10.70;;;10.50;;
3745;SDS011;1888;49.890;10.884;2022-07-06T18:41:10;11.53;;;11.33;;
3745;SDS011;1888;49.890;10.884;2022-07-06T18:43:37;11.40;;;11.20;;
3745;SDS011;1888;49.890;10.884;2022-07-06T18:46:04;11.33;;;11.13;;
3745;SDS011;1888;49.890;10.884;2022-07-06T18:48:31;11.60;;;11.40;;
3745;SDS011;1888;49.890;10.884;2022-07-06T18:51:00;11.13;;;10.93;;
3745;SDS011;1888;49.890;10.884;2022-07-06T18:53:27;11.03;;;10.83;;
3745;SDS011;1888;49.890;10.884;2022-07-06T18:55:54;11.90;;;11.70;;